ROMMA est une association bénévole à but non lucratif. Votre soutien est indispensable : ADHERER à ROMMA ou FAIRE un DON

Le Versoud - (38, Isère)

Vallée du Grésivaudan (220 m)   Longitude: 05° 51' 44" E   Latitude: 45° 13' 06" N Station partenaire n°6
 

Détail journalier du     <<     >>

Température Humidité Pression Vent Dir Rafale Dir. rafale Ensol.
Heure (°C) (%) (hPa) (km/h) (km/h) (min)
01:00 11.093101700---0
02:00 10.292101700---0
03:00 9.689101700---0
04:00 8.889101700---0
05:00 8.389101600---0
06:00 7.990101600---0
07:00 7.591101700---0
08:00 7.292101700---0
09:00 7.491101800---0
10:00 10.480101802NNE25
11:00 12.274101805NNE60
12:00 13.5651017011E60
13:00 14.66010172NE18NE60
14:00 15.75510172ENE16NE60
15:00 16.65210163NE19NE60
16:00 17.25010154NE21NE60
17:00 17.74810152N15NNE60
18:00 17.64910151NNE13NNE60
19:00 15.758101606NNE15
20:00 14.366101600---0
21:00 13.466101605E0
22:00 11.578101700---0
23:00 10.680101700---0
minuit 9.287101700---0

Graphique du 03-10-2019

 

Serveur OMMA